Archival Weather

Republic

Farmingdale, New York (KFRG)

Report from: Monday, February 12, 2024 1:53 AM EST
Current time: Saturday, June 22, 2024 5:22 AM EDT

Current weather – Weather history – Daily summaries
Weather forecast

Temperature4.4°C (39.9°F)
Wind chill2.1°C (35.8°F)
Dew point-1.1°C (30.0°F)
Winds 5 kts (2.6 m/s, 5.8 mph) North (360°)
Visibility10 mi. (16.1 km)
Clouds Ceiling: Overcast 11,000 ft. (3,353 m)
Altimeter29.92 in.Hg (1013 mB)
Relative humidity67 %
Density altitude-1,194 ft. (-364 m)
Sea-level pressure101.3 kPa (1013 mB, 29.92 in.Hg)
Remarks Fully automated report
Automated weather observing station without precipitation discriminator
Flight conditions Visual Meteorological Conditions
Raw dataKFRG 120653Z AUTO 36005KT 10SM OVC110 04/M01 A2992 RMK AO1 SLP132 T00441011
An error has occurred. This application may no longer respond until reloaded. Reload 🗙